Time;durP1;ratioP1;P1;durP2;ratioP2;P2;SDS_P1;SDS_P2;PMS_P1;PMS_P2;Temp;Humidity;BMP_temperature;BMP_pressure;BME280_temperature;BME280_humidity;BME280_pressure;Samples;Min_cycle;Max_cycle;Signal;HPM_P1;HPM_P2
2021/05/18 00:00:09;;;;;;;4.63;2.10;;;9.90;99.90;;;;;;5009593;28;20128;-60
2021/05/18 00:02:35;;;;;;;2.95;2.00;;;9.90;99.90;;;;;;5010611;28;20029;-62
2021/05/18 00:05:03;;;;;;;3.00;1.90;;;9.80;99.90;;;;;;5009884;28;20047;-58
2021/05/18 00:07:28;;;;;;;3.30;2.08;;;9.80;99.90;;;;;;5005150;28;20112;-57
2021/05/18 00:12:39;;;;;;;3.20;1.88;;;9.60;99.90;;;;;;5010993;28;20096;-59
2021/05/18 00:15:14;;;;;;;3.33;1.90;;;9.50;99.90;;;;;;5009789;28;20044;-58
2021/05/18 00:17:40;;;;;;;3.05;1.70;;;9.40;99.90;;;;;;5010108;28;20068;-60
2021/05/18 00:20:07;;;;;;;4.32;1.70;;;9.30;99.90;;;;;;5010173;28;20044;-57
2021/05/18 00:22:34;;;;;;;5.63;1.92;;;9.30;99.90;;;;;;5010203;28;20481;-58
2021/05/18 00:24:59;;;;;;;3.20;2.03;;;9.20;99.90;;;;;;5009810;28;20450;-58
2021/05/18 00:27:28;;;;;;;3.35;2.00;;;9.10;99.90;;;;;;5009760;28;20037;-58
2021/05/18 00:29:54;;;;;;;5.60;1.98;;;9.00;99.90;;;;;;5009102;28;20825;-59
2021/05/18 00:32:20;;;;;;;2.95;1.90;;;8.90;99.90;;;;;;5009836;28;20068;-59
2021/05/18 00:34:46;;;;;;;5.43;1.83;;;8.90;99.90;;;;;;5009463;28;20042;-60
2021/05/18 00:37:11;;;;;;;3.15;2.00;;;8.80;99.90;;;;;;5010790;28;20038;-58
2021/05/18 00:39:37;;;;;;;2.08;1.85;;;8.80;99.90;;;;;;5009522;28;20454;-58
2021/05/18 00:42:16;;;;;;;2.92;2.10;;;8.70;99.90;;;;;;5010124;28;20448;-59
2021/05/18 00:44:42;;;;;;;6.53;2.00;;;8.70;99.90;;;;;;4991850;28;20447;-58
2021/05/18 00:47:09;;;;;;;3.53;1.90;;;8.60;99.90;;;;;;5010361;28;20038;-58
2021/05/18 00:49:34;;;;;;;3.83;1.83;;;8.50;99.90;;;;;;5009992;28;20054;-60
2021/05/18 00:52:00;;;;;;;4.22;2.08;;;8.60;99.90;;;;;;5009832;28;20045;-60
2021/05/18 00:54:35;;;;;;;2.90;1.90;;;8.60;99.90;;;;;;5009375;28;20042;-59
2021/05/18 00:59:45;;;;;;;4.40;2.03;;;8.60;99.90;;;;;;5003103;28;20092;-59
2021/05/18 01:02:11;;;;;;;3.00;1.90;;;8.60;99.90;;;;;;5009846;28;20484;-58
2021/05/18 01:04:42;;;;;;;2.83;1.92;;;8.50;99.90;;;;;;5012783;28;20037;-60
2021/05/18 01:07:09;;;;;;;4.75;2.30;;;8.40;99.90;;;;;;4996186;28;20442;-58
2021/05/18 01:09:35;;;;;;;3.05;1.80;;;8.30;99.90;;;;;;5012317;28;20129;-60
2021/05/18 01:12:01;;;;;;;3.35;1.73;;;8.20;99.90;;;;;;5013367;28;20109;-58
2021/05/18 01:14:27;;;;;;;3.67;2.10;;;8.10;99.90;;;;;;5013140;28;20395;-59
2021/05/18 01:16:53;;;;;;;4.07;1.65;;;8.10;99.90;;;;;;5013678;28;20037;-58
2021/05/18 01:19:22;;;;;;;3.60;1.58;;;8.00;99.90;;;;;;5012925;28;20099;-57
2021/05/18 01:21:48;;;;;;;2.42;1.73;;;7.90;99.90;;;;;;5013232;28;20054;-59
2021/05/18 01:24:16;;;;;;;3.10;1.85;;;7.90;99.90;;;;;;5012940;28;20038;-60
2021/05/18 01:26:42;;;;;;;4.18;1.73;;;7.80;99.90;;;;;;5013201;28;20044;-58
2021/05/18 01:29:09;;;;;;;3.55;1.90;;;7.70;99.90;;;;;;5013355;28;20030;-60
2021/05/18 01:31:38;;;;;;;3.20;1.85;;;7.60;99.90;;;;;;5012445;28;20488;-58
2021/05/18 01:34:04;;;;;;;3.45;1.60;;;7.60;99.90;;;;;;5012567;28;20038;-58
2021/05/18 01:36:35;;;;;;;2.75;1.70;;;7.60;99.90;;;;;;5013540;28;20494;-58
2021/05/18 01:44:21;;;;;;;4.20;1.77;;;7.30;99.90;;;;;;5012283;28;20082;-57
2021/05/18 01:46:47;;;;;;;2.05;1.80;;;7.30;99.90;;;;;;5012897;28;20164;-57
2021/05/18 01:49:17;;;;;;;5.38;1.70;;;7.20;99.90;;;;;;5012072;28;20117;-59
2021/05/18 01:51:49;;;;;;;3.40;1.83;;;7.20;99.90;;;;;;5012933;28;20034;-61
2021/05/18 01:54:24;;;;;;;3.33;1.50;;;7.10;99.90;;;;;;5012590;28;20046;-58
2021/05/18 01:59:22;;;;;;;2.55;1.70;;;6.90;99.90;;;;;;5012146;28;20045;-59
2021/05/18 02:01:50;;;;;;;2.83;1.75;;;6.90;99.90;;;;;;5012419;28;20061;-60
2021/05/18 02:04:28;;;;;;;3.92;1.75;;;6.90;99.90;;;;;;5011866;28;20041;-61
2021/05/18 02:06:54;;;;;;;2.40;1.70;;;6.90;99.90;;;;;;5012892;28;20104;-58
2021/05/18 02:09:21;;;;;;;3.20;1.58;;;6.80;99.90;;;;;;5011390;28;20042;-59
2021/05/18 02:11:48;;;;;;;4.97;2.20;;;6.80;99.90;;;;;;5012408;28;20400;-59
2021/05/18 02:14:32;;;;;;;1.60;1.50;;;6.80;99.90;;;;;;5011818;28;20044;-59
2021/05/18 02:17:12;;;;;;;2.15;1.77;;;6.80;99.90;;;;;;5012635;28;20045;-58
2021/05/18 02:20:20;;;;;;;3.00;1.70;;;6.70;99.90;;;;;;5011512;28;20157;-60
2021/05/18 02:25:20;;;;;;;4.07;1.88;;;6.70;99.90;;;;;;5011404;28;20128;-58
2021/05/18 02:27:47;;;;;;;3.47;1.60;;;6.70;99.90;;;;;;5012468;28;20045;-57
2021/05/18 02:30:15;;;;;;;3.35;1.75;;;6.60;99.90;;;;;;5010568;28;20041;-57
2021/05/18 02:32:40;;;;;;;2.28;1.60;;;6.60;99.90;;;;;;5011052;28;20042;-59
2021/05/18 02:35:09;;;;;;;4.03;1.92;;;6.70;99.90;;;;;;5010049;28;20092;-60
2021/05/18 02:37:38;;;;;;;3.60;1.60;;;6.70;99.90;;;;;;5010042;28;20038;-59
2021/05/18 02:40:19;;;;;;;2.80;1.80;;;6.60;99.90;;;;;;5009969;28;20046;-60
2021/05/18 02:42:46;;;;;;;1.80;1.42;;;6.60;99.90;;;;;;5009775;28;20088;-59
2021/05/18 02:45:19;;;;;;;2.25;1.90;;;6.50;99.90;;;;;;5009181;28;20142;-59
2021/05/18 02:50:30;;;;;;;3.05;2.03;;;6.40;99.90;;;;;;5009019;28;20508;-58
2021/05/18 02:52:56;;;;;;;3.83;2.08;;;6.50;99.90;;;;;;5011740;28;20145;-60
2021/05/18 02:55:30;;;;;;;2.60;1.90;;;6.50;99.90;;;;;;5011535;28;20459;-60
2021/05/18 02:57:56;;;;;;;1.98;1.75;;;6.50;99.90;;;;;;5011894;28;20029;-58
2021/05/18 03:00:24;;;;;;;2.30;1.80;;;6.40;99.90;;;;;;5010529;28;20412;-58
2021/05/18 03:02:51;;;;;;;4.25;2.10;;;6.30;99.90;;;;;;5011959;28;20141;-59
2021/05/18 03:05:19;;;;;;;2.30;1.70;;;6.30;99.90;;;;;;5010716;28;20038;-58
2021/05/18 03:07:45;;;;;;;3.45;2.00;;;6.30;99.90;;;;;;5011740;28;20048;-61
2021/05/18 03:10:12;;;;;;;3.15;2.00;;;6.30;99.90;;;;;;5010703;28;20414;-59
2021/05/18 03:12:38;;;;;;;5.85;2.30;;;6.30;99.90;;;;;;5011580;28;20053;-60
2021/05/18 03:15:04;;;;;;;4.55;2.05;;;6.30;99.90;;;;;;5010207;28;20116;-57
2021/05/18 03:17:32;;;;;;;1.77;1.67;;;6.30;99.90;;;;;;5011586;28;20088;-60
2021/05/18 03:19:57;;;;;;;2.55;1.77;;;6.20;99.90;;;;;;5010869;28;20053;-59
2021/05/18 03:22:23;;;;;;;2.90;2.20;;;6.20;99.90;;;;;;5011816;28;20407;-60
2021/05/18 03:24:49;;;;;;;3.45;1.80;;;6.10;99.90;;;;;;5010383;28;20192;-60
2021/05/18 03:27:15;;;;;;;3.60;2.17;;;6.10;99.90;;;;;;5010397;28;20038;-57
2021/05/18 03:29:42;;;;;;;3.03;2.00;;;6.00;99.90;;;;;;5010650;28;20038;-59
2021/05/18 03:34:52;;;;;;;4.15;2.30;;;6.10;99.90;;;;;;5010929;28;20538;-57
2021/05/18 03:37:31;;;;;;;3.45;2.30;;;6.10;99.90;;;;;;5011086;28;20065;-59
2021/05/18 03:40:07;;;;;;;3.53;2.28;;;6.10;99.90;;;;;;5010599;28;20129;-60
2021/05/18 03:42:43;;;;;;;2.90;2.00;;;6.10;99.90;;;;;;4989891;28;20042;-58
2021/05/18 04:17:16;;;;;;;2.95;1.95;;;5.70;99.90;;;;;;5007767;28;20049;-59
2021/05/18 04:40:18;;;;;;;5.15;2.67;;;5.80;99.90;;;;;;5014396;28;20060;-59
2021/05/18 04:50:09;;;;;;;6.50;2.90;;;5.90;99.90;;;;;;5013629;28;20052;-59
2021/05/18 05:03:41;;;;;;;9.30;3.30;;;6.00;99.90;;;;;;5013187;28;20050;-59
2021/05/18 05:08:52;;;;;;;6.00;2.88;;;6.10;99.90;;;;;;5013582;28;20438;-58
2021/05/18 05:16:28;;;;;;;6.82;2.90;;;6.30;99.90;;;;;;5021594;28;20153;-58
2021/05/18 05:18:54;;;;;;;12.30;4.00;;;6.30;99.90;;;;;;5013984;28;20144;-58
2021/05/18 05:21:26;;;;;;;11.60;4.90;;;6.40;99.90;;;;;;5012898;28;20042;-56
2021/05/18 05:23:51;;;;;;;18.70;5.35;;;6.70;99.90;;;;;;5014366;28;20036;-59
2021/05/18 05:26:17;;;;;;;6.68;4.45;;;6.80;99.90;;;;;;5012446;28;20037;-60
2021/05/18 05:28:43;;;;;;;9.18;5.70;;;7.00;99.90;;;;;;5008121;28;20034;-59
2021/05/18 05:31:08;;;;;;;7.97;5.03;;;7.10;99.90;;;;;;5012653;28;20164;-58
2021/05/18 05:33:34;;;;;;;11.30;5.43;;;7.30;99.90;;;;;;5016840;28;20606;-58
2021/05/18 05:36:00;;;;;;;11.75;5.35;;;7.50;99.90;;;;;;5012562;28;20045;-55
2021/05/18 05:38:27;;;;;;;12.63;6.75;;;7.70;99.90;;;;;;5013195;28;20061;-58
2021/05/18 05:40:53;;;;;;;13.60;6.43;;;7.70;99.90;;;;;;4993665;28;20403;-56
2021/05/18 05:43:19;;;;;;;16.88;6.78;;;7.80;99.90;;;;;;5013430;28;20034;-56
2021/05/18 05:45:45;;;;;;;11.45;6.20;;;7.90;99.90;;;;;;5012577;28;20156;-60
2021/05/18 05:48:10;;;;;;;17.05;5.95;;;7.90;99.90;;;;;;5013094;28;20034;-60
2021/05/18 05:50:36;;;;;;;11.68;5.50;;;7.90;99.90;;;;;;5012166;28;20037;-58
2021/05/18 05:53:02;;;;;;;11.60;5.75;;;8.00;99.90;;;;;;5012991;28;20045;-57
2021/05/18 05:55:28;;;;;;;13.35;6.10;;;8.20;99.90;;;;;;5011995;28;20064;-59
2021/05/18 05:57:53;;;;;;;10.13;5.80;;;8.20;99.90;;;;;;5013112;28;20044;-55
2021/05/18 06:00:20;;;;;;;10.90;6.30;;;8.20;99.90;;;;;;5011950;28;20060;-57
2021/05/18 06:02:45;;;;;;;13.65;5.75;;;8.30;99.90;;;;;;5009835;28;20480;-59
2021/05/18 06:05:11;;;;;;;11.98;5.80;;;8.50;99.90;;;;;;5012562;28;20040;-60
2021/05/18 06:07:37;;;;;;;13.65;5.57;;;8.50;99.90;;;;;;5012411;28;20340;-60
2021/05/18 06:10:13;;;;;;;8.43;4.50;;;8.70;99.90;;;;;;5012565;28;20042;-57
2021/05/18 06:42:18;;;;;;;14.20;3.90;;;11.00;99.90;;;;;;5010198;28;20546;-59
2021/05/18 06:47:37;;;;;;;30.13;4.20;;;11.80;99.90;;;;;;5015676;28;20407;-59
2021/05/18 06:52:45;;;;;;;17.40;3.95;;;12.50;99.90;;;;;;5006771;28;20049;-58
2021/05/18 06:55:20;;;;;;;12.10;2.75;;;12.90;99.90;;;;;;5007068;28;20030;-59
2021/05/18 06:57:49;;;;;;;14.18;3.30;;;13.10;99.90;;;;;;5006691;28;20072;-59
2021/05/18 07:00:20;;;;;;;14.65;2.42;;;13.20;99.90;;;;;;5009647;28;20041;-59
2021/05/18 07:02:47;;;;;;;21.88;3.35;;;13.60;99.90;;;;;;4992135;28;20041;-59
2021/05/18 07:10:25;;;;;;;19.05;3.28;;;14.00;99.90;;;;;;5009699;28;20049;-59
2021/05/18 07:12:51;;;;;;;17.90;2.92;;;14.40;99.90;;;;;;5010200;28;20125;-60
2021/05/18 07:15:17;;;;;;;11.20;2.70;;;14.50;99.90;;;;;;5011040;28;20073;-61
2021/05/18 07:17:43;;;;;;;13.98;2.70;;;14.60;99.90;;;;;;5004337;28;20029;-61
2021/05/18 07:20:09;;;;;;;19.08;2.70;;;14.60;99.90;;;;;;5010431;28;20554;-58
2021/05/18 07:22:35;;;;;;;25.38;3.13;;;14.60;99.90;;;;;;5010196;28;20096;-59
2021/05/18 07:25:01;;;;;;;11.15;2.28;;;14.80;99.90;;;;;;5011264;28;20045;-59
2021/05/18 07:27:28;;;;;;;6.43;2.63;;;15.00;99.90;;;;;;5009843;28;20395;-59
2021/05/18 07:29:54;;;;;;;20.27;2.85;;;15.10;99.90;;;;;;5010792;28;20410;-62
2021/05/18 07:32:19;;;;;;;10.70;2.38;;;15.00;99.90;;;;;;5009681;28;20033;-59
2021/05/18 07:34:46;;;;;;;18.65;2.88;;;15.20;99.90;;;;;;5011525;28;20042;-59
2021/05/18 07:37:13;;;;;;;13.60;2.40;;;15.20;99.90;;;;;;5010597;28;20073;-59
2021/05/18 07:39:39;;;;;;;17.70;3.28;;;15.10;99.90;;;;;;5009965;28;20049;-59
2021/05/18 07:42:05;;;;;;;13.55;2.53;;;15.40;99.90;;;;;;5009857;28;20041;-61
2021/05/18 07:44:31;;;;;;;18.63;2.58;;;15.70;99.90;;;;;;5010354;28;20030;-59
2021/05/18 07:46:57;;;;;;;12.15;2.35;;;15.70;99.90;;;;;;5010436;28;20041;-59
2021/05/18 08:00:17;;;;;;;13.05;2.60;;;16.30;99.90;;;;;;5009654;28;20116;-60
2021/05/18 08:05:31;;;;;;;11.97;2.90;;;16.50;99.90;;;;;;5010993;28;20048;-59
2021/05/18 08:07:57;;;;;;;20.92;2.45;;;16.70;99.90;;;;;;5008218;28;20181;-61
2021/05/18 08:12:52;;;;;;;26.02;3.58;;;16.90;99.90;;;;;;5008627;28;20034;-60
2021/05/18 10:36:35;;;;;;;9.57;3.45;;;17.70;99.90;;;;;;5011898;28;20041;-59
2021/05/18 10:39:30;;;;;;;5.13;2.58;;;17.90;99.90;;;;;;5011368;28;20118;-59
2021/05/18 10:41:56;;;;;;;4.55;2.58;;;17.90;99.90;;;;;;5005215;28;20041;-60
2021/05/18 10:44:22;;;;;;;7.70;2.22;;;17.80;99.90;;;;;;5010838;28;20109;-61
2021/05/18 10:46:49;;;;;;;9.95;3.13;;;18.20;99.90;;;;;;5012443;28;20428;-60
2021/05/18 10:49:29;;;;;;;10.27;3.28;;;18.10;99.90;;;;;;5010751;28;20033;-61
2021/05/18 10:51:56;;;;;;;3.40;2.10;;;18.10;99.90;;;;;;5012236;28;20112;-60
2021/05/18 10:54:34;;;;;;;4.43;2.30;;;18.20;99.90;;;;;;5011525;28;20038;-60
2021/05/18 10:57:07;;;;;;;8.38;2.70;;;18.40;99.90;;;;;;4993028;28;20041;-60
2021/05/18 10:59:34;;;;;;;5.85;2.30;;;18.70;99.90;;;;;;5011094;28;20539;-60
2021/05/18 11:02:21;;;;;;;8.00;2.20;;;18.70;99.90;;;;;;5006924;28;20113;-60
2021/05/18 11:04:54;;;;;;;5.05;2.63;;;18.50;99.90;;;;;;5012184;28;20072;-59
2021/05/18 11:07:30;;;;;;;7.72;2.90;;;18.00;99.90;;;;;;5010304;28;20034;-61
2021/05/18 11:09:56;;;;;;;7.57;2.10;;;17.70;99.90;;;;;;5008264;28;20045;-60
2021/05/18 11:12:24;;;;;;;4.90;2.55;;;17.50;99.90;;;;;;5010978;28;20037;-58
2021/05/18 11:15:02;;;;;;;4.35;3.03;;;17.20;99.90;;;;;;5011342;28;20045;-60
2021/05/18 11:17:31;;;;;;;10.93;3.05;;;16.90;99.90;;;;;;5011245;28;20045;-59
2021/05/18 11:20:08;;;;;;;7.20;3.17;;;17.00;99.90;;;;;;5011344;28;20042;-59
2021/05/18 11:25:35;;;;;;;11.63;2.80;;;17.10;99.90;;;;;;5004745;28;20103;-60
2021/05/18 11:28:13;;;;;;;3.92;2.33;;;17.30;99.90;;;;;;5010217;28;20041;-59
2021/05/18 11:30:40;;;;;;;3.83;2.40;;;17.50;99.90;;;;;;5010797;28;20034;-58
2021/05/18 11:33:05;;;;;;;6.13;2.40;;;17.80;99.90;;;;;;5010596;28;20542;-59
2021/05/18 11:35:32;;;;;;;4.18;2.45;;;17.90;99.90;;;;;;5018187;28;20033;-58
2021/05/18 11:38:00;;;;;;;4.97;2.50;;;18.10;99.90;;;;;;5015451;28;20044;-61
2021/05/18 11:40:27;;;;;;;5.93;2.60;;;18.10;99.90;;;;;;5017584;28;20068;-59
2021/05/18 11:42:53;;;;;;;5.32;2.63;;;18.00;99.90;;;;;;5010571;28;20500;-58
2021/05/18 11:45:20;;;;;;;4.03;2.20;;;18.00;99.90;;;;;;5010367;28;20532;-58
2021/05/18 11:47:49;;;;;;;6.95;2.90;;;18.30;99.90;;;;;;5009246;28;20092;-59
2021/05/18 11:50:25;;;;;;;4.85;2.63;;;18.40;99.90;;;;;;5011374;28;20109;-59
2021/05/18 11:52:54;;;;;;;6.00;3.22;;;18.50;99.90;;;;;;5008760;28;20555;-59
2021/05/18 11:55:20;;;;;;;5.20;2.75;;;18.20;99.90;;;;;;5009879;28;20042;-58
2021/05/18 11:57:46;;;;;;;7.43;2.90;;;18.50;99.90;;;;;;5009650;28;20083;-60
2021/05/18 12:00:22;;;;;;;7.00;3.10;;;18.60;99.90;;;;;;5011470;28;20053;-59
2021/05/18 12:02:57;;;;;;;6.53;2.53;;;18.40;99.90;;;;;;5009455;28;20476;-59
2021/05/18 12:05:23;;;;;;;4.95;2.30;;;18.30;99.90;;;;;;5009957;28;20053;-61
2021/05/18 12:07:49;;;;;;;5.10;2.42;;;18.30;99.90;;;;;;5009774;28;20396;-62
2021/05/18 12:10:35;;;;;;;4.20;2.38;;;18.30;99.90;;;;;;5009853;28;20042;-59
2021/05/18 12:13:03;;;;;;;4.53;2.40;;;18.60;99.90;;;;;;5009983;28;20038;-60
2021/05/18 12:15:29;;;;;;;9.88;2.72;;;18.70;99.90;;;;;;5010351;28;20030;-60
2021/05/18 12:17:57;;;;;;;9.43;2.47;;;18.80;99.90;;;;;;5010049;28;20369;-59
2021/05/18 12:20:23;;;;;;;10.05;2.92;;;18.80;99.90;;;;;;4992679;28;20053;-61
2021/05/18 12:22:51;;;;;;;8.00;2.47;;;18.80;99.90;;;;;;5010125;28;20123;-59
2021/05/18 12:25:37;;;;;;;3.72;2.00;;;18.50;99.90;;;;;;5010598;28;20113;-60
2021/05/18 12:28:09;;;;;;;4.10;1.80;;;18.20;99.90;;;;;;5007447;28;20101;-60
2021/05/18 12:30:36;;;;;;;4.30;1.75;;;18.00;99.90;;;;;;5006130;28;20140;-59
2021/05/18 12:33:02;;;;;;;4.60;1.50;;;17.80;99.90;;;;;;5009842;28;20042;-60
2021/05/18 12:35:28;;;;;;;9.50;2.17;;;18.00;99.90;;;;;;5010664;28;20096;-59
2021/05/18 12:37:55;;;;;;;5.88;1.95;;;18.30;99.90;;;;;;5009947;28;20046;-60
2021/05/18 12:40:29;;;;;;;5.65;1.73;;;18.60;99.90;;;;;;5010187;28;20477;-58
2021/05/18 12:43:11;;;;;;;3.55;2.28;;;18.50;99.90;;;;;;5010442;28;20049;-60
2021/05/18 12:45:37;;;;;;;9.18;3.45;;;18.60;99.90;;;;;;5010720;28;20058;-59
2021/05/18 12:48:03;;;;;;;4.32;2.20;;;18.50;99.90;;;;;;5009797;28;20034;-58
2021/05/18 12:50:41;;;;;;;5.95;2.30;;;18.60;99.90;;;;;;5010526;28;20030;-59
2021/05/18 12:53:28;;;;;;;4.82;2.40;;;18.70;99.90;;;;;;5009762;28;20073;-61
2021/05/18 12:55:55;;;;;;;4.90;2.20;;;18.40;99.90;;;;;;5010370;28;20125;-58
2021/05/18 12:58:31;;;;;;;11.80;2.60;;;18.10;99.90;;;;;;5009657;28;20042;-59
2021/05/18 13:01:17;;;;;;;6.88;2.53;;;18.10;99.90;;;;;;5013924;28;20045;-59
2021/05/18 13:03:43;;;;;;;7.47;2.55;;;17.90;99.90;;;;;;5009271;28;20040;-60
2021/05/18 13:06:10;;;;;;;8.35;2.47;;;18.00;99.90;;;;;;5014338;28;20235;-60
2021/05/18 13:08:38;;;;;;;6.25;2.50;;;18.00;99.90;;;;;;5012632;28;20115;-59
2021/05/18 13:11:18;;;;;;;4.03;2.17;;;17.70;99.90;;;;;;5013994;28;20492;-58
2021/05/18 13:13:59;;;;;;;9.65;4.60;;;17.80;99.90;;;;;;5003407;28;20113;-59
2021/05/18 13:16:26;;;;;;;8.70;2.28;;;17.70;99.90;;;;;;5011236;28;20033;-62
2021/05/18 13:19:02;;;;;;;12.80;3.13;;;17.60;99.90;;;;;;5021183;28;20068;-60
2021/05/18 13:21:34;;;;;;;17.88;3.28;;;17.50;99.90;;;;;;5013992;28;20053;-60
2021/05/18 13:26:34;;;;;;;8.43;2.80;;;17.40;99.90;;;;;;5013796;28;20042;-58
2021/05/18 13:29:01;;;;;;;8.13;2.03;;;17.50;99.90;;;;;;5012715;28;20128;-60
2021/05/18 13:31:31;;;;;;;6.55;2.50;;;17.70;99.90;;;;;;5012689;28;20117;-60
2021/05/18 13:33:58;;;;;;;5.97;2.40;;;17.60;99.90;;;;;;5012970;28;20113;-59
2021/05/18 13:36:32;;;;;;;6.35;2.40;;;17.70;99.90;;;;;;5013245;28;20391;-59
2021/05/18 13:39:04;;;;;;;9.35;2.38;;;17.70;99.90;;;;;;5012294;28;20050;-59
2021/05/18 13:41:29;;;;;;;4.05;1.70;;;17.70;99.90;;;;;;5013048;28;20041;-59
2021/05/18 13:43:55;;;;;;;8.10;1.80;;;17.50;99.90;;;;;;5011649;28;20095;-59
2021/05/18 13:46:21;;;;;;;8.05;2.50;;;17.40;99.90;;;;;;5013380;28;20046;-59
2021/05/18 13:48:47;;;;;;;8.20;1.52;;;17.30;99.90;;;;;;5012633;28;20042;-60
2021/05/18 13:51:15;;;;;;;2.85;1.42;;;17.10;99.90;;;;;;5013784;28;20030;-61
2021/05/18 13:53:42;;;;;;;12.48;2.75;;;17.10;99.90;;;;;;4994559;28;20755;-62
2021/05/18 13:56:08;;;;;;;3.53;1.17;;;16.90;99.90;;;;;;5013531;28;20041;-59
2021/05/18 13:58:34;;;;;;;6.22;1.35;;;16.90;99.90;;;;;;5012525;28;20100;-60
2021/05/18 14:01:03;;;;;;;3.33;1.30;;;16.80;99.90;;;;;;5013275;28;20045;-60
2021/05/18 14:03:28;;;;;;;3.00;1.20;;;16.80;99.90;;;;;;5012349;28;20517;-60
2021/05/18 14:05:54;;;;;;;3.85;1.13;;;16.80;99.90;;;;;;5013632;28;20491;-60
2021/05/18 14:08:35;;;;;;;3.60;1.08;;;17.10;99.90;;;;;;5012413;28;20053;-59
2021/05/18 14:11:14;;;;;;;7.15;1.17;;;17.40;99.90;;;;;;5012275;28;20491;-60
2021/05/18 14:13:44;;;;;;;4.78;1.25;;;17.70;99.90;;;;;;5012505;28;20042;-61
2021/05/18 14:16:15;;;;;;;2.95;1.17;;;17.80;99.90;;;;;;5013219;28;20049;-59
2021/05/18 14:18:41;;;;;;;2.95;0.98;;;17.90;99.90;;;;;;5012030;28;20042;-60
2021/05/18 14:21:08;;;;;;;5.15;1.30;;;17.80;99.90;;;;;;5012632;28;20050;-60
2021/05/18 14:24:20;;;;;;;1.80;0.90;;;17.80;99.90;;;;;;5012476;28;20041;-60
2021/05/18 14:26:29;;;;;;;2.95;0.80;;;17.80;99.90;;;;;;5003655;28;20490;-60
2021/05/18 14:28:54;;;;;;;4.95;1.30;;;17.90;99.90;;;;;;5012040;28;20033;-59
2021/05/18 14:31:21;;;;;;;3.85;1.30;;;18.00;99.90;;;;;;5012490;28;20056;-58
2021/05/18 14:33:47;;;;;;;2.70;1.00;;;18.20;99.90;;;;;;5012176;28;20030;-60
2021/05/18 14:36:14;;;;;;;7.38;1.40;;;18.30;99.90;;;;;;5012851;28;20136;-59
2021/05/18 14:38:43;;;;;;;7.10;2.90;;;18.40;99.90;;;;;;5011682;28;20053;-58
2021/05/18 14:46:41;;;;;;;5.50;1.50;;;18.40;99.90;;;;;;5012555;28;20048;-58
2021/05/18 14:55:06;;;;;;;2.42;1.10;;;18.20;99.90;;;;;;5000728;28;20045;-58
2021/05/18 14:57:19;;;;;;;3.28;1.08;;;18.50;99.90;;;;;;5009367;28;20075;-58
2021/05/18 14:59:45;;;;;;;3.53;1.25;;;18.70;99.90;;;;;;5011579;28;20045;-59
2021/05/18 15:02:10;;;;;;;2.40;0.88;;;18.70;99.90;;;;;;5012153;28;20037;-59
2021/05/18 15:04:36;;;;;;;7.35;1.40;;;18.60;99.90;;;;;;4993732;28;20029;-58
2021/05/18 15:07:07;;;;;;;5.30;0.80;;;18.50;99.90;;;;;;5012129;28;20030;-58
2021/05/18 15:09:34;;;;;;;3.70;1.00;;;18.40;99.90;;;;;;5011319;28;20030;-60
2021/05/18 15:12:00;;;;;;;1.98;1.00;;;18.20;99.90;;;;;;5011549;28;20399;-60
2021/05/18 15:14:26;;;;;;;2.28;1.30;;;18.10;99.90;;;;;;5011596;28;20042;-60
2021/05/18 15:16:51;;;;;;;7.00;1.50;;;18.10;99.90;;;;;;5011877;28;20033;-61
2021/05/18 15:19:18;;;;;;;5.28;1.50;;;18.00;99.90;;;;;;5011345;28;20052;-60
2021/05/18 15:21:44;;;;;;;3.40;1.33;;;17.80;99.90;;;;;;5010912;28;20057;-58
2021/05/18 15:24:10;;;;;;;3.83;1.60;;;17.70;99.90;;;;;;5009748;28;20138;-62
2021/05/18 15:26:36;;;;;;;3.85;1.17;;;17.60;99.90;;;;;;5012009;28;20037;-59
2021/05/18 15:29:04;;;;;;;1.50;1.10;;;17.40;99.90;;;;;;5010644;28;20559;-60
2021/05/18 15:31:30;;;;;;;8.68;1.17;;;17.20;99.90;;;;;;5011948;28;20041;-59
2021/05/18 15:33:56;;;;;;;8.15;1.27;;;17.10;99.90;;;;;;5011577;28;20500;-60
2021/05/18 15:36:21;;;;;;;2.20;1.00;;;17.00;99.90;;;;;;5010674;28;20041;-61
2021/05/18 15:38:47;;;;;;;5.82;2.17;;;17.00;99.90;;;;;;5010496;28;20045;-58
2021/05/18 15:41:15;;;;;;;6.00;1.80;;;16.90;99.90;;;;;;5009203;28;20065;-58
2021/05/18 15:43:44;;;;;;;2.08;1.20;;;16.70;99.90;;;;;;5010908;28;20053;-59
2021/05/18 15:46:09;;;;;;;6.32;1.40;;;16.70;99.90;;;;;;5010350;28;20038;-60
2021/05/18 15:48:35;;;;;;;5.63;1.30;;;16.70;99.90;;;;;;5011306;28;20049;-57
2021/05/18 15:51:01;;;;;;;4.85;1.60;;;16.60;99.90;;;;;;5009832;28;20042;-58
2021/05/18 15:53:27;;;;;;;6.63;1.95;;;16.30;99.90;;;;;;5010724;28;20096;-59
2021/05/18 15:55:53;;;;;;;3.05;1.10;;;16.20;99.90;;;;;;5010775;28;20044;-58
2021/05/18 15:58:19;;;;;;;7.85;1.48;;;15.90;99.90;;;;;;5011124;28;20046;-58
2021/05/18 16:00:47;;;;;;;6.18;1.15;;;15.90;99.90;;;;;;5009716;28;20120;-58
2021/05/18 16:03:15;;;;;;;3.65;1.00;;;15.90;99.90;;;;;;5010792;28;20053;-60
2021/05/18 16:05:41;;;;;;;3.63;1.40;;;15.80;99.90;;;;;;5010206;28;20045;-58
2021/05/18 16:10:52;;;;;;;8.10;1.55;;;15.50;99.90;;;;;;4996778;28;20518;-61
2021/05/18 16:13:17;;;;;;;6.75;2.33;;;15.40;99.90;;;;;;5010848;28;20041;-59
2021/05/18 16:15:43;;;;;;;3.22;1.00;;;15.30;99.90;;;;;;5009546;28;20446;-58
2021/05/18 16:18:09;;;;;;;16.83;3.10;;;15.40;99.90;;;;;;5010684;28;20480;-60
2021/05/18 16:20:35;;;;;;;3.60;1.13;;;15.40;99.90;;;;;;5009722;28;20100;-58
2021/05/18 16:23:00;;;;;;;1.95;0.80;;;15.40;99.90;;;;;;5010869;28;20046;-60
2021/05/18 16:25:27;;;;;;;1.83;0.90;;;15.40;99.90;;;;;;5010134;28;20085;-61
2021/05/18 16:27:53;;;;;;;5.63;1.20;;;15.40;99.90;;;;;;5009399;28;20042;-59
2021/05/18 16:30:19;;;;;;;4.28;1.30;;;15.40;99.90;;;;;;5009022;28;20042;-57
2021/05/18 16:32:45;;;;;;;4.40;1.00;;;15.40;99.90;;;;;;5011066;28;20030;-59
2021/05/18 16:35:12;;;;;;;11.52;1.30;;;15.30;99.90;;;;;;5013369;28;20060;-60
2021/05/18 16:37:39;;;;;;;2.38;1.42;;;15.30;99.90;;;;;;5014254;28;20026;-60
2021/05/18 16:40:06;;;;;;;11.13;1.23;;;15.20;99.90;;;;;;5012643;28;20034;-59
2021/05/18 16:42:35;;;;;;;2.97;0.82;;;15.20;99.90;;;;;;5015685;28;20394;-59
2021/05/18 16:45:01;;;;;;;11.35;1.83;;;15.10;99.90;;;;;;5013508;28;20547;-58
2021/05/18 16:47:27;;;;;;;15.95;1.98;;;15.10;99.90;;;;;;5014164;28;20117;-60
2021/05/18 16:49:53;;;;;;;6.68;1.95;;;15.20;99.90;;;;;;5013485;28;20105;-59
2021/05/18 16:52:19;;;;;;;3.33;0.95;;;15.30;99.90;;;;;;5010503;28;20104;-59
2021/05/18 16:54:45;;;;;;;3.13;1.00;;;15.30;99.90;;;;;;5013375;28;20372;-60
2021/05/18 16:57:11;;;;;;;7.50;1.50;;;15.20;99.90;;;;;;5014069;28;20041;-60
2021/05/18 16:59:37;;;;;;;3.20;1.00;;;15.30;99.90;;;;;;4995739;28;20045;-58
2021/05/18 17:02:03;;;;;;;3.00;0.95;;;15.30;99.90;;;;;;5013350;28;20060;-60
2021/05/18 17:04:29;;;;;;;3.92;1.08;;;15.40;99.90;;;;;;5013517;28;20061;-61
2021/05/18 17:06:56;;;;;;;1.73;1.00;;;15.40;99.90;;;;;;5013590;28;20070;-57
2021/05/18 17:09:22;;;;;;;10.23;1.70;;;15.40;99.90;;;;;;5014292;28;20030;-59
2021/05/18 17:11:47;;;;;;;7.10;1.42;;;15.40;99.90;;;;;;5012912;28;20121;-60
2021/05/18 17:14:14;;;;;;;8.52;1.88;;;15.40;99.90;;;;;;5013666;28;20048;-59
2021/05/18 17:16:40;;;;;;;9.23;2.17;;;15.40;99.90;;;;;;5013107;28;20046;-59
2021/05/18 17:19:06;;;;;;;8.95;1.65;;;15.40;99.90;;;;;;5013606;28;20491;-58
2021/05/18 17:21:33;;;;;;;5.43;1.20;;;15.40;99.90;;;;;;5012350;28;20113;-59
2021/05/18 17:23:59;;;;;;;8.98;3.65;;;15.30;99.90;;;;;;5014161;28;20509;-58
2021/05/18 17:26:25;;;;;;;7.20;1.30;;;15.30;99.90;;;;;;5011757;28;20729;-59
2021/05/18 17:28:52;;;;;;;3.55;1.45;;;15.30;99.90;;;;;;5013820;28;20412;-58
2021/05/18 17:31:18;;;;;;;12.27;6.88;;;15.30;99.90;;;;;;5012876;28;20049;-59
2021/05/18 17:33:44;;;;;;;12.32;1.73;;;15.40;99.90;;;;;;5013707;28;20045;-57
2021/05/18 17:36:11;;;;;;;2.40;1.10;;;15.40;99.90;;;;;;5012794;28;20042;-59
2021/05/18 17:38:37;;;;;;;3.15;1.40;;;15.30;99.90;;;;;;5014000;28;20030;-59
2021/05/18 17:41:04;;;;;;;6.13;2.20;;;15.30;99.90;;;;;;5012449;28;20042;-60
2021/05/18 17:43:31;;;;;;;6.05;1.38;;;15.30;99.90;;;;;;4995212;28;20387;-61
2021/05/18 17:46:02;;;;;;;4.47;1.30;;;15.40;99.90;;;;;;5011901;28;20038;-59
2021/05/18 17:48:28;;;;;;;2.05;1.00;;;15.30;99.90;;;;;;5013109;28;20053;-59
2021/05/18 17:50:54;;;;;;;4.70;1.15;;;15.30;99.90;;;;;;5012717;28;20084;-59
2021/05/18 17:53:20;;;;;;;11.73;1.10;;;15.30;99.90;;;;;;5012854;28;20066;-58
2021/05/18 17:55:45;;;;;;;7.57;1.00;;;15.30;99.90;;;;;;5012536;28;20088;-59
2021/05/18 17:58:13;;;;;;;3.50;1.02;;;15.20;99.90;;;;;;5012582;28;20034;-59
2021/05/18 18:00:39;;;;;;;2.20;0.98;;;15.10;99.90;;;;;;5011690;28;20037;-57
2021/05/18 18:03:05;;;;;;;2.35;0.70;;;15.10;99.90;;;;;;5011782;28;20038;-58
2021/05/18 18:05:31;;;;;;;4.72;1.00;;;15.00;99.90;;;;;;4994826;28;20055;-58
2021/05/18 18:07:57;;;;;;;2.22;1.00;;;15.10;99.90;;;;;;5013282;28;20476;-57
2021/05/18 18:10:24;;;;;;;16.67;2.22;;;15.10;99.90;;;;;;5012180;28;20049;-59